Airfield :
LOGIN :

Register | Disclaimer

   EN    FR    IT 

 










Legend :    VFR   Marginal VFR   IFR   Intensive IFR   Very Intensive IFR
Visi :
Ceiling :
>= 8 km
>= 3000ft
5 to 8 km
1000 to 3000 ft
1500m to 5 km
500 to 1000 ft
800 to 1500m
200 to 500 ft
< 800m
< 200 ft
Symbols :   Thunderstorms  Fog  Heavy snow  Heavy precipitations  Wind > 20 kt
SIGMETs :     Misc.  Thunderstorms  Icing  Turbulence  Mountain Waves  Volcanic Ashes







- Airport Elevation : 1496 ft
- IATA code : SBZ


LRSB - Sibiu

CURRENT METAR :
  • 170430Z VRB02KT 9000 FEW042 M05/M06 Q1015

EXPIRED METARs :
  • 170400Z 10002KT CAVOK M05/M05 Q1015
  • 170330Z 11004KT CAVOK M03/M04 Q1015
  • 170300Z 21002KT CAVOK M04/M05 Q1015
  • 170230Z 26002KT CAVOK M03/M04 Q1015
  • 170200Z AUTO 26003KT 9000 BKN180/// M03/M05 Q1016

TAF TAF LRSB
Valid from the 17 at 00:00 until the 18 at 00:00 UTC


162300Z 1700/1724 VRB04KT CAVOK
PROB30
TEMPO 1701/1706 3000 BR BKN010
No reported NOTAMs for that airfield.



MET'MAP, your aeronautical weather chart ! - Copyright ORBIFLY December 2007 - Disclaimer

ORBIFLY MET'MAP TEAM :

Programming & Development : Alexandra Zaïnal
Concept & Development : Baudouin d'Aumeries
Co-Development & Prog : Marc-Olivier Méhu
Technical & hardware support : Manuel Goepfert

Contact : metmap@orbifly.com




SOURCES & CREDITS :

   NOAA